sensor_id;sensor_type;location;lat;lon;timestamp;temperature;humidity
16283;DHT22;8249;48.708;9.030;2023-04-03T00:00:37;3.60;99.90
16283;DHT22;8249;48.708;9.030;2023-04-03T00:03:05;3.60;99.90
16283;DHT22;8249;48.708;9.030;2023-04-03T00:05:32;3.70;99.90
16283;DHT22;8249;48.708;9.030;2023-04-03T00:07:59;3.70;99.90
16283;DHT22;8249;48.708;9.030;2023-04-03T00:10:28;3.60;99.90
16283;DHT22;8249;48.708;9.030;2023-04-03T00:12:54;3.60;99.90
16283;DHT22;8249;48.708;9.030;2023-04-03T00:15:21;3.60;99.90
16283;DHT22;8249;48.708;9.030;2023-04-03T00:17:48;3.60;99.90
16283;DHT22;8249;48.708;9.030;2023-04-03T00:20:17;3.60;99.90
16283;DHT22;8249;48.708;9.030;2023-04-03T00:22:44;3.60;99.90
16283;DHT22;8249;48.708;9.030;2023-04-03T00:25:11;3.60;99.90
16283;DHT22;8249;48.708;9.030;2023-04-03T00:27:39;3.60;99.90
16283;DHT22;8249;48.708;9.030;2023-04-03T00:30:08;3.60;99.90
16283;DHT22;8249;48.708;9.030;2023-04-03T00:32:36;3.60;99.90
16283;DHT22;8249;48.708;9.030;2023-04-03T00:35:04;3.50;99.90
16283;DHT22;8249;48.708;9.030;2023-04-03T00:37:33;3.50;99.90
16283;DHT22;8249;48.708;9.030;2023-04-03T00:40:01;3.50;99.90
16283;DHT22;8249;48.708;9.030;2023-04-03T00:42:28;3.50;99.90
16283;DHT22;8249;48.708;9.030;2023-04-03T00:48:08;3.50;99.90
16283;DHT22;8249;48.708;9.030;2023-04-03T00:50:39;3.50;99.90
16283;DHT22;8249;48.708;9.030;2023-04-03T00:53:11;3.50;99.90
16283;DHT22;8249;48.708;9.030;2023-04-03T00:55:39;3.50;99.90
16283;DHT22;8249;48.708;9.030;2023-04-03T00:58:08;3.50;99.90
16283;DHT22;8249;48.708;9.030;2023-04-03T01:00:37;3.50;99.90
16283;DHT22;8249;48.708;9.030;2023-04-03T01:03:07;3.50;99.90
16283;DHT22;8249;48.708;9.030;2023-04-03T01:05:35;3.40;99.90
16283;DHT22;8249;48.708;9.030;2023-04-03T01:08:02;3.40;99.90
16283;DHT22;8249;48.708;9.030;2023-04-03T01:10:31;3.40;99.90
16283;DHT22;8249;48.708;9.030;2023-04-03T01:12:59;3.40;99.90
16283;DHT22;8249;48.708;9.030;2023-04-03T01:15:29;3.40;99.90
16283;DHT22;8249;48.708;9.030;2023-04-03T01:18:00;3.40;99.90
16283;DHT22;8249;48.708;9.030;2023-04-03T01:21:10;3.40;99.90
16283;DHT22;8249;48.708;9.030;2023-04-03T01:23:59;3.30;99.90
16283;DHT22;8249;48.708;9.030;2023-04-03T01:26:33;3.40;99.90
16283;DHT22;8249;48.708;9.030;2023-04-03T01:29:01;3.40;99.90
16283;DHT22;8249;48.708;9.030;2023-04-03T01:31:32;3.30;99.90
16283;DHT22;8249;48.708;9.030;2023-04-03T01:34:02;3.30;99.90
16283;DHT22;8249;48.708;9.030;2023-04-03T01:36:31;3.30;99.90
16283;DHT22;8249;48.708;9.030;2023-04-03T01:38:59;3.20;99.90
16283;DHT22;8249;48.708;9.030;2023-04-03T01:41:27;3.20;99.90
16283;DHT22;8249;48.708;9.030;2023-04-03T01:44:01;3.20;99.90
16283;DHT22;8249;48.708;9.030;2023-04-03T01:46:28;3.20;99.90
16283;DHT22;8249;48.708;9.030;2023-04-03T01:48:55;3.20;99.90
16283;DHT22;8249;48.708;9.030;2023-04-03T01:51:23;3.10;99.90
16283;DHT22;8249;48.708;9.030;2023-04-03T01:53:51;3.10;99.90
16283;DHT22;8249;48.708;9.030;2023-04-03T01:56:18;3.10;99.90
16283;DHT22;8249;48.708;9.030;2023-04-03T01:58:45;3.10;99.90
16283;DHT22;8249;48.708;9.030;2023-04-03T02:01:13;3.10;99.90
16283;DHT22;8249;48.708;9.030;2023-04-03T02:03:40;3.10;99.90
16283;DHT22;8249;48.708;9.030;2023-04-03T02:06:07;3.10;99.90
16283;DHT22;8249;48.708;9.030;2023-04-03T02:08:36;3.10;99.90
16283;DHT22;8249;48.708;9.030;2023-04-03T02:11:05;3.00;99.90
16283;DHT22;8249;48.708;9.030;2023-04-03T02:13:32;3.00;99.90
16283;DHT22;8249;48.708;9.030;2023-04-03T02:16:06;3.00;99.90
16283;DHT22;8249;48.708;9.030;2023-04-03T02:18:33;3.00;99.90
16283;DHT22;8249;48.708;9.030;2023-04-03T02:21:01;2.90;99.90
16283;DHT22;8249;48.708;9.030;2023-04-03T02:23:28;2.90;99.90
16283;DHT22;8249;48.708;9.030;2023-04-03T02:26:04;2.90;99.90
16283;DHT22;8249;48.708;9.030;2023-04-03T02:28:31;2.90;99.90
16283;DHT22;8249;48.708;9.030;2023-04-03T02:30:58;2.90;99.90
16283;DHT22;8249;48.708;9.030;2023-04-03T02:33:26;2.90;99.90
16283;DHT22;8249;48.708;9.030;2023-04-03T02:35:53;2.90;99.90
16283;DHT22;8249;48.708;9.030;2023-04-03T02:38:22;2.90;99.90
16283;DHT22;8249;48.708;9.030;2023-04-03T02:40:49;2.90;99.90
16283;DHT22;8249;48.708;9.030;2023-04-03T02:43:18;2.90;99.90
16283;DHT22;8249;48.708;9.030;2023-04-03T02:45:45;2.90;99.90
16283;DHT22;8249;48.708;9.030;2023-04-03T02:48:12;3.00;99.90
16283;DHT22;8249;48.708;9.030;2023-04-03T02:50:40;3.00;99.90
16283;DHT22;8249;48.708;9.030;2023-04-03T02:53:07;2.90;99.90
16283;DHT22;8249;48.708;9.030;2023-04-03T02:55:35;3.00;99.90
16283;DHT22;8249;48.708;9.030;2023-04-03T02:58:02;2.90;99.90
16283;DHT22;8249;48.708;9.030;2023-04-03T03:00:30;3.00;99.90
16283;DHT22;8249;48.708;9.030;2023-04-03T03:02:57;3.00;99.90
16283;DHT22;8249;48.708;9.030;2023-04-03T03:05:24;3.00;99.90
16283;DHT22;8249;48.708;9.030;2023-04-03T03:07:52;3.00;99.90
16283;DHT22;8249;48.708;9.030;2023-04-03T03:10:18;3.00;99.90
16283;DHT22;8249;48.708;9.030;2023-04-03T03:12:46;3.00;99.90
16283;DHT22;8249;48.708;9.030;2023-04-03T03:15:12;3.00;99.90
16283;DHT22;8249;48.708;9.030;2023-04-03T03:17:42;3.00;99.90
16283;DHT22;8249;48.708;9.030;2023-04-03T03:20:11;3.00;99.90
16283;DHT22;8249;48.708;9.030;2023-04-03T03:22:39;3.00;99.90
16283;DHT22;8249;48.708;9.030;2023-04-03T03:25:07;3.00;99.90
16283;DHT22;8249;48.708;9.030;2023-04-03T03:27:36;3.00;99.90
16283;DHT22;8249;48.708;9.030;2023-04-03T03:30:04;3.00;99.90
16283;DHT22;8249;48.708;9.030;2023-04-03T03:32:32;3.00;99.90
16283;DHT22;8249;48.708;9.030;2023-04-03T03:35:00;3.00;99.90
16283;DHT22;8249;48.708;9.030;2023-04-03T03:37:27;3.00;99.90
16283;DHT22;8249;48.708;9.030;2023-04-03T03:39:54;3.00;99.90
16283;DHT22;8249;48.708;9.030;2023-04-03T03:42:21;3.00;99.90
16283;DHT22;8249;48.708;9.030;2023-04-03T03:44:49;3.00;99.90
16283;DHT22;8249;48.708;9.030;2023-04-03T03:47:18;3.00;99.90
16283;DHT22;8249;48.708;9.030;2023-04-03T03:49:45;3.00;99.90
16283;DHT22;8249;48.708;9.030;2023-04-03T03:52:15;3.00;99.90
16283;DHT22;8249;48.708;9.030;2023-04-03T03:54:42;3.00;99.90
16283;DHT22;8249;48.708;9.030;2023-04-03T03:57:10;3.00;99.90
16283;DHT22;8249;48.708;9.030;2023-04-03T03:59:37;3.00;99.90
16283;DHT22;8249;48.708;9.030;2023-04-03T04:02:06;3.00;99.90
16283;DHT22;8249;48.708;9.030;2023-04-03T04:04:33;3.00;99.90
16283;DHT22;8249;48.708;9.030;2023-04-03T04:07:01;3.10;99.90
16283;DHT22;8249;48.708;9.030;2023-04-03T04:09:30;3.10;99.90
16283;DHT22;8249;48.708;9.030;2023-04-03T04:11:57;3.00;99.90
16283;DHT22;8249;48.708;9.030;2023-04-03T04:14:24;3.10;99.90
16283;DHT22;8249;48.708;9.030;2023-04-03T04:16:52;3.10;99.90
16283;DHT22;8249;48.708;9.030;2023-04-03T04:19:23;3.10;99.90
16283;DHT22;8249;48.708;9.030;2023-04-03T04:21:50;3.10;99.90
16283;DHT22;8249;48.708;9.030;2023-04-03T04:24:18;3.10;99.90
16283;DHT22;8249;48.708;9.030;2023-04-03T04:26:48;3.10;99.90
16283;DHT22;8249;48.708;9.030;2023-04-03T04:29:16;3.10;99.90
16283;DHT22;8249;48.708;9.030;2023-04-03T04:31:46;3.10;99.90
16283;DHT22;8249;48.708;9.030;2023-04-03T04:34:13;3.10;99.90
16283;DHT22;8249;48.708;9.030;2023-04-03T04:36:41;3.10;99.90
16283;DHT22;8249;48.708;9.030;2023-04-03T04:39:08;3.20;99.90
16283;DHT22;8249;48.708;9.030;2023-04-03T04:41:35;3.10;99.90
16283;DHT22;8249;48.708;9.030;2023-04-03T04:44:05;3.10;99.90
16283;DHT22;8249;48.708;9.030;2023-04-03T04:46:32;3.10;99.90
16283;DHT22;8249;48.708;9.030;2023-04-03T04:49:00;3.10;99.90
16283;DHT22;8249;48.708;9.030;2023-04-03T04:51:29;3.20;99.90
16283;DHT22;8249;48.708;9.030;2023-04-03T04:53:57;3.10;99.90
16283;DHT22;8249;48.708;9.030;2023-04-03T04:56:24;3.10;99.90
16283;DHT22;8249;48.708;9.030;2023-04-03T04:58:53;3.10;99.90
16283;DHT22;8249;48.708;9.030;2023-04-03T05:01:22;3.10;99.90
16283;DHT22;8249;48.708;9.030;2023-04-03T05:04:04;3.20;99.90
16283;DHT22;8249;48.708;9.030;2023-04-03T05:06:31;3.30;99.90
16283;DHT22;8249;48.708;9.030;2023-04-03T05:09:01;3.30;99.90
16283;DHT22;8249;48.708;9.030;2023-04-03T05:11:29;3.40;99.90
16283;DHT22;8249;48.708;9.030;2023-04-03T05:13:56;3.40;99.90
16283;DHT22;8249;48.708;9.030;2023-04-03T05:16:26;3.40;99.90
16283;DHT22;8249;48.708;9.030;2023-04-03T05:18:54;3.50;99.90
16283;DHT22;8249;48.708;9.030;2023-04-03T05:21:22;3.50;99.90
16283;DHT22;8249;48.708;9.030;2023-04-03T05:23:52;3.40;99.90
16283;DHT22;8249;48.708;9.030;2023-04-03T05:26:19;3.50;99.90
16283;DHT22;8249;48.708;9.030;2023-04-03T05:28:47;3.50;99.90
16283;DHT22;8249;48.708;9.030;2023-04-03T05:31:15;3.50;99.90
16283;DHT22;8249;48.708;9.030;2023-04-03T05:33:44;3.60;99.90
16283;DHT22;8249;48.708;9.030;2023-04-03T05:36:16;3.60;99.90
16283;DHT22;8249;48.708;9.030;2023-04-03T05:38:45;3.70;99.90
16283;DHT22;8249;48.708;9.030;2023-04-03T05:41:13;3.70;99.90
16283;DHT22;8249;48.708;9.030;2023-04-03T05:43:42;3.70;99.90
16283;DHT22;8249;48.708;9.030;2023-04-03T05:46:11;3.70;99.90
16283;DHT22;8249;48.708;9.030;2023-04-03T05:48:39;3.70;99.90
16283;DHT22;8249;48.708;9.030;2023-04-03T05:51:14;3.70;99.90
16283;DHT22;8249;48.708;9.030;2023-04-03T05:53:43;3.80;99.90
16283;DHT22;8249;48.708;9.030;2023-04-03T05:56:11;3.80;99.90
16283;DHT22;8249;48.708;9.030;2023-04-03T05:58:39;3.80;99.90
16283;DHT22;8249;48.708;9.030;2023-04-03T06:01:06;3.90;99.90
16283;DHT22;8249;48.708;9.030;2023-04-03T06:03:34;3.90;99.90
16283;DHT22;8249;48.708;9.030;2023-04-03T06:06:03;3.90;99.90
16283;DHT22;8249;48.708;9.030;2023-04-03T06:08:32;3.90;99.90
16283;DHT22;8249;48.708;9.030;2023-04-03T06:10:59;3.80;99.90
16283;DHT22;8249;48.708;9.030;2023-04-03T06:13:27;3.80;99.90
16283;DHT22;8249;48.708;9.030;2023-04-03T06:15:55;3.80;99.90
16283;DHT22;8249;48.708;9.030;2023-04-03T08:42:34;6.50;99.90
16283;DHT22;8249;48.708;9.030;2023-04-03T08:45:10;6.50;99.90
16283;DHT22;8249;48.708;9.030;2023-04-03T08:47:42;6.80;99.90
16283;DHT22;8249;48.708;9.030;2023-04-03T08:50:16;7.00;99.90
16283;DHT22;8249;48.708;9.030;2023-04-03T08:52:46;7.20;99.90
16283;DHT22;8249;48.708;9.030;2023-04-03T08:55:22;7.20;99.90
16283;DHT22;8249;48.708;9.030;2023-04-03T08:57:58;7.10;99.90
16283;DHT22;8249;48.708;9.030;2023-04-03T09:00:29;7.10;99.90
16283;DHT22;8249;48.708;9.030;2023-04-03T09:02:57;7.30;99.90
16283;DHT22;8249;48.708;9.030;2023-04-03T09:05:32;7.20;99.90
16283;DHT22;8249;48.708;9.030;2023-04-03T09:08:11;7.20;99.90
16283;DHT22;8249;48.708;9.030;2023-04-03T09:10:40;7.30;99.90
16283;DHT22;8249;48.708;9.030;2023-04-03T09:13:17;7.50;99.90
16283;DHT22;8249;48.708;9.030;2023-04-03T09:15:47;7.40;99.90
16283;DHT22;8249;48.708;9.030;2023-04-03T09:18:19;7.40;99.90
16283;DHT22;8249;48.708;9.030;2023-04-03T09:20:53;7.40;99.90
16283;DHT22;8249;48.708;9.030;2023-04-03T09:23:28;7.30;99.90
16283;DHT22;8249;48.708;9.030;2023-04-03T09:26:01;7.40;99.90
16283;DHT22;8249;48.708;9.030;2023-04-03T09:28:34;7.40;99.90
16283;DHT22;8249;48.708;9.030;2023-04-03T09:31:06;7.50;99.90
16283;DHT22;8249;48.708;9.030;2023-04-03T09:33:39;7.40;99.90
16283;DHT22;8249;48.708;9.030;2023-04-03T09:36:06;7.30;99.90
16283;DHT22;8249;48.708;9.030;2023-04-03T09:38:33;7.20;99.90
16283;DHT22;8249;48.708;9.030;2023-04-03T09:41:06;7.10;99.90
16283;DHT22;8249;48.708;9.030;2023-04-03T09:43:37;7.20;99.90
16283;DHT22;8249;48.708;9.030;2023-04-03T09:46:25;6.90;99.90
16283;DHT22;8249;48.708;9.030;2023-04-03T09:48:55;6.80;99.90
16283;DHT22;8249;48.708;9.030;2023-04-03T09:51:25;6.60;99.90
16283;DHT22;8249;48.708;9.030;2023-04-03T09:53:54;6.60;99.90
16283;DHT22;8249;48.708;9.030;2023-04-03T09:56:25;6.70;99.90
16283;DHT22;8249;48.708;9.030;2023-04-03T09:59:08;6.70;99.90
16283;DHT22;8249;48.708;9.030;2023-04-03T10:01:42;6.80;99.90
16283;DHT22;8249;48.708;9.030;2023-04-03T10:04:11;6.80;99.90
16283;DHT22;8249;48.708;9.030;2023-04-03T10:06:39;6.80;99.90
16283;DHT22;8249;48.708;9.030;2023-04-03T10:09:18;6.90;99.90
16283;DHT22;8249;48.708;9.030;2023-04-03T10:12:03;7.20;99.90
16283;DHT22;8249;48.708;9.030;2023-04-03T10:14:34;7.40;99.90
16283;DHT22;8249;48.708;9.030;2023-04-03T10:17:17;7.40;99.90
16283;DHT22;8249;48.708;9.030;2023-04-03T10:19:47;7.50;99.90
16283;DHT22;8249;48.708;9.030;2023-04-03T10:22:26;7.30;99.90
16283;DHT22;8249;48.708;9.030;2023-04-03T10:25:03;7.20;99.90
16283;DHT22;8249;48.708;9.030;2023-04-03T10:27:43;7.30;99.90
16283;DHT22;8249;48.708;9.030;2023-04-03T10:30:22;7.50;99.90
16283;DHT22;8249;48.708;9.030;2023-04-03T10:32:58;7.60;99.90
16283;DHT22;8249;48.708;9.030;2023-04-03T10:35:39;7.80;99.90
16283;DHT22;8249;48.708;9.030;2023-04-03T10:38:15;7.80;99.90
16283;DHT22;8249;48.708;9.030;2023-04-03T10:40:50;7.70;99.90
16283;DHT22;8249;48.708;9.030;2023-04-03T10:43:22;7.50;99.90
16283;DHT22;8249;48.708;9.030;2023-04-03T10:45:57;7.20;99.90
16283;DHT22;8249;48.708;9.030;2023-04-03T10:48:55;7.10;99.90
16283;DHT22;8249;48.708;9.030;2023-04-03T10:51:29;7.10;99.90
16283;DHT22;8249;48.708;9.030;2023-04-03T10:54:04;7.00;99.90
16283;DHT22;8249;48.708;9.030;2023-04-03T10:56:36;7.10;99.90
16283;DHT22;8249;48.708;9.030;2023-04-03T10:59:16;7.00;99.90
16283;DHT22;8249;48.708;9.030;2023-04-03T11:01:48;7.00;99.90
16283;DHT22;8249;48.708;9.030;2023-04-03T11:04:17;7.00;99.90
16283;DHT22;8249;48.708;9.030;2023-04-03T11:06:50;7.00;99.90
16283;DHT22;8249;48.708;9.030;2023-04-03T11:09:23;6.80;99.90
16283;DHT22;8249;48.708;9.030;2023-04-03T11:11:55;6.50;99.90
16283;DHT22;8249;48.708;9.030;2023-04-03T11:14:26;6.50;99.90
16283;DHT22;8249;48.708;9.030;2023-04-03T11:17:06;6.40;99.90
16283;DHT22;8249;48.708;9.030;2023-04-03T11:19:41;6.40;99.90
16283;DHT22;8249;48.708;9.030;2023-04-03T11:22:18;6.50;99.90
16283;DHT22;8249;48.708;9.030;2023-04-03T11:24:57;6.50;99.90
16283;DHT22;8249;48.708;9.030;2023-04-03T11:27:25;6.60;99.90
16283;DHT22;8249;48.708;9.030;2023-04-03T11:29:57;6.60;99.90
16283;DHT22;8249;48.708;9.030;2023-04-03T11:32:48;6.50;99.90
16283;DHT22;8249;48.708;9.030;2023-04-03T11:35:21;6.40;99.90
16283;DHT22;8249;48.708;9.030;2023-04-03T11:37:51;6.30;99.90
16283;DHT22;8249;48.708;9.030;2023-04-03T11:40:22;6.40;99.90
16283;DHT22;8249;48.708;9.030;2023-04-03T11:42:52;6.50;99.90
16283;DHT22;8249;48.708;9.030;2023-04-03T11:45:37;6.60;99.90
16283;DHT22;8249;48.708;9.030;2023-04-03T11:48:47;6.60;99.90
16283;DHT22;8249;48.708;9.030;2023-04-03T11:51:39;6.70;99.90
16283;DHT22;8249;48.708;9.030;2023-04-03T11:54:36;6.80;99.90
16283;DHT22;8249;48.708;9.030;2023-04-03T11:57:42;6.80;99.90
16283;DHT22;8249;48.708;9.030;2023-04-03T12:00:45;6.70;99.90
16283;DHT22;8249;48.708;9.030;2023-04-03T12:09:56;6.40;99.90
16283;DHT22;8249;48.708;9.030;2023-04-03T12:12:32;6.30;99.90
16283;DHT22;8249;48.708;9.030;2023-04-03T12:15:24;6.20;99.90
16283;DHT22;8249;48.708;9.030;2023-04-03T12:17:52;6.40;99.90
16283;DHT22;8249;48.708;9.030;2023-04-03T12:20:54;6.70;99.90
16283;DHT22;8249;48.708;9.030;2023-04-03T12:23:29;6.90;99.90
16283;DHT22;8249;48.708;9.030;2023-04-03T12:26:19;7.10;99.90
16283;DHT22;8249;48.708;9.030;2023-04-03T12:28:48;7.10;99.90
16283;DHT22;8249;48.708;9.030;2023-04-03T12:31:16;7.00;99.90
16283;DHT22;8249;48.708;9.030;2023-04-03T12:34:04;7.10;99.90
16283;DHT22;8249;48.708;9.030;2023-04-03T12:36:39;7.10;99.90
16283;DHT22;8249;48.708;9.030;2023-04-03T12:39:21;6.90;99.90
16283;DHT22;8249;48.708;9.030;2023-04-03T12:41:58;6.80;99.90
16283;DHT22;8249;48.708;9.030;2023-04-03T12:44:40;6.70;99.90
16283;DHT22;8249;48.708;9.030;2023-04-03T12:47:23;6.80;99.90
16283;DHT22;8249;48.708;9.030;2023-04-03T12:49:53;6.60;99.90
16283;DHT22;8249;48.708;9.030;2023-04-03T12:52:30;6.70;99.90
16283;DHT22;8249;48.708;9.030;2023-04-03T12:54:59;6.60;99.90
16283;DHT22;8249;48.708;9.030;2023-04-03T12:57:31;6.70;99.90
16283;DHT22;8249;48.708;9.030;2023-04-03T12:59:58;6.90;99.90
16283;DHT22;8249;48.708;9.030;2023-04-03T13:02:27;7.20;99.90
16283;DHT22;8249;48.708;9.030;2023-04-03T13:04:56;7.50;99.90
16283;DHT22;8249;48.708;9.030;2023-04-03T13:07:27;8.60;99.90
16283;DHT22;8249;48.708;9.030;2023-04-03T13:10:00;9.10;99.90
16283;DHT22;8249;48.708;9.030;2023-04-03T13:12:27;9.00;99.90
16283;DHT22;8249;48.708;9.030;2023-04-03T13:14:59;9.00;99.90
16283;DHT22;8249;48.708;9.030;2023-04-03T13:17:27;8.90;99.90
16283;DHT22;8249;48.708;9.030;2023-04-03T13:19:54;8.70;99.90
16283;DHT22;8249;48.708;9.030;2023-04-03T13:22:28;8.50;99.90
16283;DHT22;8249;48.708;9.030;2023-04-03T13:24:59;8.10;99.90
16283;DHT22;8249;48.708;9.030;2023-04-03T13:27:29;7.90;99.90
16283;DHT22;8249;48.708;9.030;2023-04-03T13:30:00;7.90;99.90
16283;DHT22;8249;48.708;9.030;2023-04-03T13:32:30;7.90;99.90
16283;DHT22;8249;48.708;9.030;2023-04-03T13:34:58;8.20;99.90
16283;DHT22;8249;48.708;9.030;2023-04-03T13:37:27;8.20;99.90
16283;DHT22;8249;48.708;9.030;2023-04-03T13:39:59;8.30;99.90
16283;DHT22;8249;48.708;9.030;2023-04-03T13:42:29;8.40;99.90
16283;DHT22;8249;48.708;9.030;2023-04-03T13:45:17;8.70;99.90
16283;DHT22;8249;48.708;9.030;2023-04-03T13:47:46;8.90;99.90
16283;DHT22;8249;48.708;9.030;2023-04-03T13:50:16;9.40;99.90
16283;DHT22;8249;48.708;9.030;2023-04-03T13:52:48;9.80;99.90
16283;DHT22;8249;48.708;9.030;2023-04-03T13:55:21;9.80;99.90
16283;DHT22;8249;48.708;9.030;2023-04-03T13:57:54;9.60;99.90
16283;DHT22;8249;48.708;9.030;2023-04-03T14:00:30;9.40;99.90
16283;DHT22;8249;48.708;9.030;2023-04-03T14:02:58;8.90;99.90
16283;DHT22;8249;48.708;9.030;2023-04-03T14:05:25;8.60;99.90
16283;DHT22;8249;48.708;9.030;2023-04-03T14:07:53;8.20;99.90
16283;DHT22;8249;48.708;9.030;2023-04-03T14:10:21;7.90;99.90
16283;DHT22;8249;48.708;9.030;2023-04-03T14:12:48;7.80;99.90
16283;DHT22;8249;48.708;9.030;2023-04-03T14:15:20;7.70;99.90
16283;DHT22;8249;48.708;9.030;2023-04-03T14:17:51;7.60;99.90
16283;DHT22;8249;48.708;9.030;2023-04-03T14:20:21;7.50;99.90
16283;DHT22;8249;48.708;9.030;2023-04-03T14:22:49;7.50;99.90
16283;DHT22;8249;48.708;9.030;2023-04-03T14:25:17;7.70;99.90
16283;DHT22;8249;48.708;9.030;2023-04-03T14:27:46;7.90;99.90
16283;DHT22;8249;48.708;9.030;2023-04-03T14:30:17;8.20;99.90
16283;DHT22;8249;48.708;9.030;2023-04-03T14:32:45;8.10;99.90
16283;DHT22;8249;48.708;9.030;2023-04-03T14:35:14;8.00;99.90
16283;DHT22;8249;48.708;9.030;2023-04-03T14:37:41;7.90;99.90
16283;DHT22;8249;48.708;9.030;2023-04-03T14:40:13;7.80;99.90
16283;DHT22;8249;48.708;9.030;2023-04-03T14:42:40;7.60;99.90
16283;DHT22;8249;48.708;9.030;2023-04-03T14:45:10;7.50;99.90
16283;DHT22;8249;48.708;9.030;2023-04-03T14:47:42;7.30;99.90
16283;DHT22;8249;48.708;9.030;2023-04-03T14:50:15;7.30;99.90
16283;DHT22;8249;48.708;9.030;2023-04-03T14:52:43;7.30;99.90
16283;DHT22;8249;48.708;9.030;2023-04-03T14:55:12;7.30;99.90
16283;DHT22;8249;48.708;9.030;2023-04-03T14:57:41;7.20;99.90
16283;DHT22;8249;48.708;9.030;2023-04-03T15:00:12;7.20;99.90
16283;DHT22;8249;48.708;9.030;2023-04-03T15:02:39;7.20;99.90
16283;DHT22;8249;48.708;9.030;2023-04-03T15:05:08;7.60;99.90
16283;DHT22;8249;48.708;9.030;2023-04-03T15:07:39;8.30;99.90
16283;DHT22;8249;48.708;9.030;2023-04-03T15:10:15;9.10;99.90
16283;DHT22;8249;48.708;9.030;2023-04-03T15:12:43;10.30;99.70
16283;DHT22;8249;48.708;9.030;2023-04-03T15:15:10;11.50;97.90
16283;DHT22;8249;48.708;9.030;2023-04-03T15:17:38;12.40;98.50
16283;DHT22;8249;48.708;9.030;2023-04-03T15:20:12;13.70;96.10
16283;DHT22;8249;48.708;9.030;2023-04-03T15:22:41;14.20;97.30
16283;DHT22;8249;48.708;9.030;2023-04-03T15:25:08;13.70;94.50
16283;DHT22;8249;48.708;9.030;2023-04-03T15:27:35;12.70;95.10
16283;DHT22;8249;48.708;9.030;2023-04-03T15:30:03;11.70;96.40
16283;DHT22;8249;48.708;9.030;2023-04-03T15:32:30;11.10;97.40
16283;DHT22;8249;48.708;9.030;2023-04-03T15:34:57;10.30;97.90
16283;DHT22;8249;48.708;9.030;2023-04-03T15:37:24;10.00;98.30
16283;DHT22;8249;48.708;9.030;2023-04-03T15:39:52;9.90;98.30
16283;DHT22;8249;48.708;9.030;2023-04-03T15:42:19;9.90;98.10
16283;DHT22;8249;48.708;9.030;2023-04-03T15:44:46;9.80;99.80
16283;DHT22;8249;48.708;9.030;2023-04-03T15:47:13;10.10;98.80
16283;DHT22;8249;48.708;9.030;2023-04-03T15:49:40;10.90;97.90
16283;DHT22;8249;48.708;9.030;2023-04-03T15:52:08;11.10;95.80
16283;DHT22;8249;48.708;9.030;2023-04-03T15:54:35;10.80;95.90
16283;DHT22;8249;48.708;9.030;2023-04-03T15:57:03;10.50;96.50
16283;DHT22;8249;48.708;9.030;2023-04-03T15:59:31;10.20;99.10
16283;DHT22;8249;48.708;9.030;2023-04-03T16:01:58;9.70;96.20
16283;DHT22;8249;48.708;9.030;2023-04-03T16:04:27;9.30;98.40
16283;DHT22;8249;48.708;9.030;2023-04-03T16:06:54;9.20;98.70
16283;DHT22;8249;48.708;9.030;2023-04-03T16:09:21;9.20;98.60
16283;DHT22;8249;48.708;9.030;2023-04-03T16:11:48;9.10;95.90
16283;DHT22;8249;48.708;9.030;2023-04-03T16:14:16;8.80;96.30
16283;DHT22;8249;48.708;9.030;2023-04-03T16:16:43;8.60;97.10
16283;DHT22;8249;48.708;9.030;2023-04-03T16:19:10;8.30;97.80
16283;DHT22;8249;48.708;9.030;2023-04-03T16:21:38;8.40;98.50
16283;DHT22;8249;48.708;9.030;2023-04-03T16:24:05;8.20;98.10
16283;DHT22;8249;48.708;9.030;2023-04-03T16:26:32;8.00;97.90
16283;DHT22;8249;48.708;9.030;2023-04-03T16:28:59;8.00;97.70
16283;DHT22;8249;48.708;9.030;2023-04-03T16:31:28;7.80;97.10
16283;DHT22;8249;48.708;9.030;2023-04-03T16:33:55;7.90;97.30
16283;DHT22;8249;48.708;9.030;2023-04-03T16:36:23;7.90;96.80
16283;DHT22;8249;48.708;9.030;2023-04-03T16:38:51;7.60;96.70
16283;DHT22;8249;48.708;9.030;2023-04-03T16:41:18;7.60;97.30
16283;DHT22;8249;48.708;9.030;2023-04-03T16:43:45;7.80;96.30
16283;DHT22;8249;48.708;9.030;2023-04-03T16:46:12;7.70;97.00
16283;DHT22;8249;48.708;9.030;2023-04-03T16:48:40;7.70;97.30
16283;DHT22;8249;48.708;9.030;2023-04-03T16:51:07;7.50;97.20
16283;DHT22;8249;48.708;9.030;2023-04-03T16:53:34;7.50;97.30
16283;DHT22;8249;48.708;9.030;2023-04-03T16:56:01;7.40;97.40
16283;DHT22;8249;48.708;9.030;2023-04-03T16:58:28;7.20;96.70
16283;DHT22;8249;48.708;9.030;2023-04-03T17:00:55;6.90;96.30
16283;DHT22;8249;48.708;9.030;2023-04-03T17:03:22;6.80;96.40
16283;DHT22;8249;48.708;9.030;2023-04-03T17:05:52;6.50;97.00
16283;DHT22;8249;48.708;9.030;2023-04-03T17:08:19;6.30;96.50
16283;DHT22;8249;48.708;9.030;2023-04-03T17:10:46;6.10;96.90
16283;DHT22;8249;48.708;9.030;2023-04-03T17:13:13;6.10;96.70
16283;DHT22;8249;48.708;9.030;2023-04-03T17:15:40;6.10;97.00
16283;DHT22;8249;48.708;9.030;2023-04-03T17:18:07;6.10;97.30
16283;DHT22;8249;48.708;9.030;2023-04-03T17:20:35;6.10;97.70
16283;DHT22;8249;48.708;9.030;2023-04-03T17:23:05;6.10;97.80
16283;DHT22;8249;48.708;9.030;2023-04-03T17:25:32;5.90;97.60
16283;DHT22;8249;48.708;9.030;2023-04-03T17:27:59;6.10;98.10
16283;DHT22;8249;48.708;9.030;2023-04-03T17:30:26;6.00;98.00
16283;DHT22;8249;48.708;9.030;2023-04-03T17:32:53;6.00;98.10
16283;DHT22;8249;48.708;9.030;2023-04-03T17:35:20;6.00;98.10
16283;DHT22;8249;48.708;9.030;2023-04-03T17:37:47;6.00;98.30
16283;DHT22;8249;48.708;9.030;2023-04-03T17:40:16;5.90;98.50
16283;DHT22;8249;48.708;9.030;2023-04-03T17:42:45;5.90;98.50
16283;DHT22;8249;48.708;9.030;2023-04-03T17:45:12;5.90;98.70
16283;DHT22;8249;48.708;9.030;2023-04-03T17:47:39;5.90;99.00
16283;DHT22;8249;48.708;9.030;2023-04-03T17:50:06;5.90;98.70
16283;DHT22;8249;48.708;9.030;2023-04-03T17:52:33;5.80;98.90
16283;DHT22;8249;48.708;9.030;2023-04-03T17:55:00;5.80;99.40
16283;DHT22;8249;48.708;9.030;2023-04-03T17:57:29;5.70;99.20
16283;DHT22;8249;48.708;9.030;2023-04-03T17:59:56;5.70;99.00
16283;DHT22;8249;48.708;9.030;2023-04-03T18:02:23;5.60;99.40
16283;DHT22;8249;48.708;9.030;2023-04-03T18:04:51;5.60;99.50
16283;DHT22;8249;48.708;9.030;2023-04-03T18:07:19;5.50;99.50
16283;DHT22;8249;48.708;9.030;2023-04-03T18:09:49;5.40;99.50
16283;DHT22;8249;48.708;9.030;2023-04-03T18:12:17;5.40;99.80
16283;DHT22;8249;48.708;9.030;2023-04-03T18:14:46;5.40;99.90
16283;DHT22;8249;48.708;9.030;2023-04-03T18:17:15;5.40;99.90
16283;DHT22;8249;48.708;9.030;2023-04-03T18:19:44;5.30;99.90
16283;DHT22;8249;48.708;9.030;2023-04-03T18:22:12;5.30;99.90
16283;DHT22;8249;48.708;9.030;2023-04-03T18:24:41;5.30;99.90
16283;DHT22;8249;48.708;9.030;2023-04-03T18:27:12;5.30;99.60
16283;DHT22;8249;48.708;9.030;2023-04-03T18:29:41;5.20;99.90
16283;DHT22;8249;48.708;9.030;2023-04-03T18:32:12;5.30;99.90
16283;DHT22;8249;48.708;9.030;2023-04-03T18:34:39;5.20;99.90
16283;DHT22;8249;48.708;9.030;2023-04-03T18:37:06;5.10;99.90
16283;DHT22;8249;48.708;9.030;2023-04-03T18:39:33;5.10;99.90
16283;DHT22;8249;48.708;9.030;2023-04-03T18:42:05;5.10;99.90
16283;DHT22;8249;48.708;9.030;2023-04-03T18:44:34;5.00;99.90
16283;DHT22;8249;48.708;9.030;2023-04-03T18:47:02;4.90;99.90
16283;DHT22;8249;48.708;9.030;2023-04-03T18:49:31;4.80;99.90
16283;DHT22;8249;48.708;9.030;2023-04-03T18:51:59;4.80;99.90
16283;DHT22;8249;48.708;9.030;2023-04-03T18:54:26;4.70;99.90
16283;DHT22;8249;48.708;9.030;2023-04-03T18:56:53;4.60;99.90